M/T Pazar — TCMC — position and weather

sailwx.info

Track history (hours):
 
Tides and Currents Weather Stations Pressure Air Temp Water Temp Dewpoint Dewpoint Depression Visibility Wind Speed Wind Dir Waves Ship Positions

M/T Pazar

Last reported at 2016-Jul-30 19:31 UTC. Time now 2016-Jul-31 07:20 UTC.
Position N 41°20' E 002°11'.

Length 85 m; draft 4 m.

Type: Tanker. MMSI: 271000251.

Date/timePositionNaut miles runAvg speedWind from/ knotsBaromVisibWave heightAir tempDewpointWater temp
2016-Jul-30 19:31N 41°20' E 002°11'0 0.0
2016-Jul-30 17:13N 41°20' E 002°11'0 0.0
2016-Jul-30 07:13N 41°20' E 002°11'0 0.0
2016-Jul-30 01:25N 41°20' E 002°11'1 0.1
2016-Jul-29 04:31N 41°20' E 002°10'1 0.0
2016-Jul-28 10:32N 41°20' E 002°09'4 4.3
2016-Jul-28 09:30N 41°17' E 002°13'1010.7
2016-Jul-28 08:33N 41°12' E 002°25'1110.5
2016-Jul-28 07:33N 41°08' E 002°37'1511.1
2016-Jul-28 06:12N 41°01' E 002°55'711.0
2016-Jul-28 05:33N 40°58' E 003°04'1111.1
2016-Jul-28 04:33N 40°53' E 003°17'1110.8
2016-Jul-28 03:33N 40°48' E 003°30'26810.3
2016-Jul-27 01:29N 38°43' E 008°39'10 9.6
2016-Jul-27 00:26N 38°38' E 008°50'1410.0
2016-Jul-26 23:03N 38°32' E 009°05'247 9.7
2016-Jul-25 21:33N 36°27' E 013°34'34 8.2
2016-Jul-25 17:25N 36°10' E 014°10'18 8.9
2016-Jul-25 15:24N 35°59' E 014°28'11 2.3
2016-Jul-25 10:28N 35°50' E 014°36'0 0.0
2016-Jul-25 09:31N 35°50' E 014°36'0 0.0
2016-Jul-25 08:31N 35°50' E 014°36'4 4.2
2016-Jul-25 07:29N 35°49' E 014°41'1010.4
2016-Jul-25 06:34N 35°51' E 014°53'1010.3
2016-Jul-25 05:33N 35°52' E 015°05'1010.2
2016-Jul-25 04:33N 35°54' E 015°18'2010.2
2016-Jul-25 02:33N 35°57' E 015°43'1110.3
2016-Jul-25 01:28N 35°59' E 015°56'43410.5
2016-Jul-23 08:18N 37°14' E 024°48'811.6
2016-Jul-23 07:33N 37°19' E 024°56'1212.0
2016-Jul-23 06:33N 37°27' E 025°08'2311.6
2016-Jul-23 04:34N 37°42' E 025°30'1211.4
2016-Jul-23 03:33N 37°50' E 025°41'  
Track history (hours):
 
Tides and Currents Weather Stations Pressure Air Temp Water Temp Dewpoint Dewpoint Depression Visibility Wind Speed Wind Dir Waves Ship Positions

M/T Pazar

Last reported at 2016-Jul-30 19:31 UTC. Time now 2016-Jul-31 07:20 UTC.
Position N 41°20' E 002°11'.

Length 85 m; draft 4 m.

Type: Tanker. MMSI: 271000251.

Date/timePositionNaut miles runAvg speedWind from/ knotsBaromVisibWave heightAir tempDewpointWater temp
2016-Jul-30 19:31N 41°20' E 002°11'0 0.0
2016-Jul-30 17:13N 41°20' E 002°11'0 0.0
2016-Jul-30 07:13N 41°20' E 002°11'0 0.0
2016-Jul-30 01:25N 41°20' E 002°11'1 0.1
2016-Jul-29 04:31N 41°20' E 002°10'1 0.0
2016-Jul-28 10:32N 41°20' E 002°09'4 4.3
2016-Jul-28 09:30N 41°17' E 002°13'1010.7
2016-Jul-28 08:33N 41°12' E 002°25'1110.5
2016-Jul-28 07:33N 41°08' E 002°37'1511.1
2016-Jul-28 06:12N 41°01' E 002°55'711.0
2016-Jul-28 05:33N 40°58' E 003°04'1111.1
2016-Jul-28 04:33N 40°53' E 003°17'1110.8
2016-Jul-28 03:33N 40°48' E 003°30'26810.3
2016-Jul-27 01:29N 38°43' E 008°39'10 9.6
2016-Jul-27 00:26N 38°38' E 008°50'1410.0
2016-Jul-26 23:03N 38°32' E 009°05'247 9.7
2016-Jul-25 21:33N 36°27' E 013°34'34 8.2
2016-Jul-25 17:25N 36°10' E 014°10'18 8.9
2016-Jul-25 15:24N 35°59' E 014°28'11 2.3
2016-Jul-25 10:28N 35°50' E 014°36'0 0.0
2016-Jul-25 09:31N 35°50' E 014°36'0 0.0
2016-Jul-25 08:31N 35°50' E 014°36'4 4.2
2016-Jul-25 07:29N 35°49' E 014°41'1010.4
2016-Jul-25 06:34N 35°51' E 014°53'1010.3
2016-Jul-25 05:33N 35°52' E 015°05'1010.2
2016-Jul-25 04:33N 35°54' E 015°18'2010.2
2016-Jul-25 02:33N 35°57' E 015°43'1110.3
2016-Jul-25 01:28N 35°59' E 015°56'43410.5
2016-Jul-23 08:18N 37°14' E 024°48'811.6
2016-Jul-23 07:33N 37°19' E 024°56'1212.0
2016-Jul-23 06:33N 37°27' E 025°08'2311.6
2016-Jul-23 04:34N 37°42' E 025°30'1211.4
2016-Jul-23 03:33N 37°50' E 025°41'  

Dump ship's entire track history